sensor_id;sensor_type;location;lat;lon;timestamp;pressure;altitude;pressure_sealevel;temperature;humidity
77077;BME280;66003;52.286;104.306;2023-06-24T00:00:33;95726.78;;;23.18;52.20
77077;BME280;66003;52.286;104.306;2023-06-24T00:02:59;95704.75;;;22.97;52.37
77077;BME280;66003;52.286;104.306;2023-06-24T00:05:28;95731.72;;;23.05;52.12
77077;BME280;66003;52.286;104.306;2023-06-24T00:07:54;95736.47;;;23.12;52.33
77077;BME280;66003;52.286;104.306;2023-06-24T00:10:22;95730.91;;;23.05;52.16
77077;BME280;66003;52.286;104.306;2023-06-24T00:12:48;95749.00;;;23.61;51.15
77077;BME280;66003;52.286;104.306;2023-06-24T00:15:15;95741.25;;;23.26;51.90
77077;BME280;66003;52.286;104.306;2023-06-24T00:17:41;95741.34;;;23.33;51.62
77077;BME280;66003;52.286;104.306;2023-06-24T00:20:07;95756.22;;;23.42;51.65
77077;BME280;66003;52.286;104.306;2023-06-24T00:22:40;95751.56;;;23.43;51.11
77077;BME280;66003;52.286;104.306;2023-06-24T00:25:14;95684.16;;;23.03;50.90
77077;BME280;66003;52.286;104.306;2023-06-24T00:27:41;95756.63;;;23.45;51.03
77077;BME280;66003;52.286;104.306;2023-06-24T00:30:09;95751.97;;;23.49;50.80
77077;BME280;66003;52.286;104.306;2023-06-24T00:32:35;95751.34;;;23.62;50.51
77077;BME280;66003;52.286;104.306;2023-06-24T00:35:01;95751.69;;;24.08;49.93
77077;BME280;66003;52.286;104.306;2023-06-24T00:37:29;95734.22;;;23.65;50.16
77077;BME280;66003;52.286;104.306;2023-06-24T00:39:55;95760.06;;;23.79;50.13
77077;BME280;66003;52.286;104.306;2023-06-24T00:42:21;95730.34;;;23.66;50.28
77077;BME280;66003;52.286;104.306;2023-06-24T00:44:48;95753.06;;;23.81;49.88
77077;BME280;66003;52.286;104.306;2023-06-24T00:47:15;95741.66;;;23.68;50.07
77077;BME280;66003;52.286;104.306;2023-06-24T00:49:41;95747.88;;;23.65;50.07
77077;BME280;66003;52.286;104.306;2023-06-24T00:52:11;95756.22;;;23.83;50.06
77077;BME280;66003;52.286;104.306;2023-06-24T00:54:44;95723.03;;;23.77;49.75
77077;BME280;66003;52.286;104.306;2023-06-24T00:57:11;95739.06;;;23.86;49.03
77077;BME280;66003;52.286;104.306;2023-06-24T00:59:40;95759.19;;;24.19;49.22
77077;BME280;66003;52.286;104.306;2023-06-24T01:02:08;95745.88;;;24.13;49.20
77077;BME280;66003;52.286;104.306;2023-06-24T01:04:36;95758.88;;;24.27;49.25
77077;BME280;66003;52.286;104.306;2023-06-24T01:07:04;95751.09;;;24.33;49.02
77077;BME280;66003;52.286;104.306;2023-06-24T01:09:31;95725.69;;;24.25;48.74
77077;BME280;66003;52.286;104.306;2023-06-24T01:11:58;95768.38;;;24.55;47.97
77077;BME280;66003;52.286;104.306;2023-06-24T01:14:24;95757.97;;;24.81;47.56
77077;BME280;66003;52.286;104.306;2023-06-24T01:16:59;95770.16;;;24.95;47.27
77077;BME280;66003;52.286;104.306;2023-06-24T01:20:25;95751.09;;;25.37;46.47
77077;BME280;66003;52.286;104.306;2023-06-24T01:30:54;95769.50;;;25.44;45.87
77077;BME280;66003;52.286;104.306;2023-06-24T01:33:32;95759.72;;;25.43;45.78
77077;BME280;66003;52.286;104.306;2023-06-24T01:36:04;95754.59;;;25.27;46.13
77077;BME280;66003;52.286;104.306;2023-06-24T01:38:37;95767.09;;;25.21;46.34
77077;BME280;66003;52.286;104.306;2023-06-24T01:41:06;95765.09;;;25.00;46.52
77077;BME280;66003;52.286;104.306;2023-06-24T01:43:34;95763.84;;;24.83;46.86
77077;BME280;66003;52.286;104.306;2023-06-24T01:46:05;95770.50;;;24.86;47.35
77077;BME280;66003;52.286;104.306;2023-06-24T01:48:35;95732.88;;;24.51;47.33
77077;BME280;66003;52.286;104.306;2023-06-24T01:51:09;95766.91;;;24.71;47.69
77077;BME280;66003;52.286;104.306;2023-06-24T01:53:42;95744.53;;;24.44;47.74
77077;BME280;66003;52.286;104.306;2023-06-24T01:56:15;95769.19;;;24.59;47.10
77077;BME280;66003;52.286;104.306;2023-06-24T01:58:43;95753.84;;;24.36;47.72
77077;BME280;66003;52.286;104.306;2023-06-24T02:01:12;95705.59;;;23.93;48.17
77077;BME280;66003;52.286;104.306;2023-06-24T02:03:41;95773.31;;;24.28;48.52
77077;BME280;66003;52.286;104.306;2023-06-24T02:06:09;95763.47;;;24.16;47.91
77077;BME280;66003;52.286;104.306;2023-06-24T02:08:38;95767.84;;;24.28;48.32
77077;BME280;66003;52.286;104.306;2023-06-24T02:11:06;95706.38;;;23.93;47.94
77077;BME280;66003;52.286;104.306;2023-06-24T02:13:35;95772.94;;;24.33;48.45
77077;BME280;66003;52.286;104.306;2023-06-24T02:16:04;95777.25;;;24.34;47.67
77077;BME280;66003;52.286;104.306;2023-06-24T02:18:34;95768.66;;;24.35;47.74
77077;BME280;66003;52.286;104.306;2023-06-24T02:21:02;95760.81;;;24.27;47.13
77077;BME280;66003;52.286;104.306;2023-06-24T02:23:30;95769.88;;;24.45;47.08
77077;BME280;66003;52.286;104.306;2023-06-24T02:25:57;95777.34;;;24.55;47.16
77077;BME280;66003;52.286;104.306;2023-06-24T02:28:25;95769.94;;;24.56;46.39
77077;BME280;66003;52.286;104.306;2023-06-24T02:30:51;95756.34;;;24.63;46.57
77077;BME280;66003;52.286;104.306;2023-06-24T02:33:19;95754.38;;;24.63;46.22
77077;BME280;66003;52.286;104.306;2023-06-24T02:35:46;95767.34;;;24.77;45.71
77077;BME280;66003;52.286;104.306;2023-06-24T02:38:13;95781.78;;;24.77;46.28
77077;BME280;66003;52.286;104.306;2023-06-24T02:40:45;95767.72;;;24.79;46.18
77077;BME280;66003;52.286;104.306;2023-06-24T02:43:11;95780.22;;;24.76;46.19
77077;BME280;66003;52.286;104.306;2023-06-24T02:45:38;95774.41;;;24.89;46.21
77077;BME280;66003;52.286;104.306;2023-06-24T02:48:06;95763.03;;;24.76;45.58
77077;BME280;66003;52.286;104.306;2023-06-24T02:50:35;95747.75;;;24.64;45.69
77077;BME280;66003;52.286;104.306;2023-06-24T02:53:05;95777.59;;;24.98;45.04
77077;BME280;66003;52.286;104.306;2023-06-24T02:55:33;95752.13;;;24.90;44.67
77077;BME280;66003;52.286;104.306;2023-06-24T02:58:01;95766.66;;;25.01;44.63
77077;BME280;66003;52.286;104.306;2023-06-24T03:00:28;95771.78;;;25.10;45.19
77077;BME280;66003;52.286;104.306;2023-06-24T03:02:55;95727.13;;;24.92;44.33
77077;BME280;66003;52.286;104.306;2023-06-24T03:05:21;95735.00;;;25.04;44.41
77077;BME280;66003;52.286;104.306;2023-06-24T03:07:51;95768.69;;;25.33;45.06
77077;BME280;66003;52.286;104.306;2023-06-24T03:10:18;95760.88;;;25.31;43.69
77077;BME280;66003;52.286;104.306;2023-06-24T03:12:45;95756.97;;;25.32;44.71
77077;BME280;66003;52.286;104.306;2023-06-24T03:15:11;95771.44;;;25.40;44.18
77077;BME280;66003;52.286;104.306;2023-06-24T03:17:38;95751.88;;;25.27;43.57
77077;BME280;66003;52.286;104.306;2023-06-24T03:20:04;95752.66;;;25.31;43.76
77077;BME280;66003;52.286;104.306;2023-06-24T03:22:31;95767.13;;;25.39;44.43
77077;BME280;66003;52.286;104.306;2023-06-24T03:24:57;95765.97;;;25.40;44.53
77077;BME280;66003;52.286;104.306;2023-06-24T03:27:23;95765.97;;;25.50;44.77
77077;BME280;66003;52.286;104.306;2023-06-24T03:29:49;95766.41;;;25.63;45.15
77077;BME280;66003;52.286;104.306;2023-06-24T03:32:16;95764.09;;;25.72;43.93
77077;BME280;66003;52.286;104.306;2023-06-24T03:34:42;95768.75;;;25.75;44.13
77077;BME280;66003;52.286;104.306;2023-06-24T03:37:08;95748.84;;;25.61;44.35
77077;BME280;66003;52.286;104.306;2023-06-24T03:39:34;95777.78;;;25.69;45.17
77077;BME280;66003;52.286;104.306;2023-06-24T03:42:01;95755.03;;;25.40;46.50
77077;BME280;66003;52.286;104.306;2023-06-24T03:44:27;95774.97;;;25.44;44.81
77077;BME280;66003;52.286;104.306;2023-06-24T03:46:53;95765.19;;;25.39;45.30
77077;BME280;66003;52.286;104.306;2023-06-24T03:49:26;95771.44;;;25.43;45.51
77077;BME280;66003;52.286;104.306;2023-06-24T03:51:54;95781.56;;;25.29;45.76
77077;BME280;66003;52.286;104.306;2023-06-24T03:54:20;95751.44;;;25.07;45.60
77077;BME280;66003;52.286;104.306;2023-06-24T03:56:46;95749.81;;;24.89;45.24
77077;BME280;66003;52.286;104.306;2023-06-24T03:59:12;95769.66;;;24.78;45.88
77077;BME280;66003;52.286;104.306;2023-06-24T04:01:39;95777.81;;;24.64;46.79
77077;BME280;66003;52.286;104.306;2023-06-24T04:04:05;95780.94;;;24.63;46.29
77077;BME280;66003;52.286;104.306;2023-06-24T04:06:31;95762.91;;;24.51;46.29
77077;BME280;66003;52.286;104.306;2023-06-24T04:08:58;95767.16;;;24.41;47.08
77077;BME280;66003;52.286;104.306;2023-06-24T04:11:24;95755.00;;;24.28;47.51
77077;BME280;66003;52.286;104.306;2023-06-24T04:13:51;95779.53;;;24.25;47.98
77077;BME280;66003;52.286;104.306;2023-06-24T04:16:17;95774.38;;;24.20;49.36
77077;BME280;66003;52.286;104.306;2023-06-24T04:18:44;95782.38;;;24.46;47.86
77077;BME280;66003;52.286;104.306;2023-06-24T04:21:10;95780.88;;;24.56;47.69
77077;BME280;66003;52.286;104.306;2023-06-24T04:23:37;95784.03;;;24.61;47.25
77077;BME280;66003;52.286;104.306;2023-06-24T04:26:03;95782.06;;;24.58;46.94
77077;BME280;66003;52.286;104.306;2023-06-24T04:28:29;95746.44;;;24.37;47.91
77077;BME280;66003;52.286;104.306;2023-06-24T04:30:56;95772.22;;;24.43;47.78
77077;BME280;66003;52.286;104.306;2023-06-24T04:33:22;95780.75;;;24.31;48.05
77077;BME280;66003;52.286;104.306;2023-06-24T04:35:49;95790.72;;;24.12;48.40
77077;BME280;66003;52.286;104.306;2023-06-24T04:38:17;95790.25;;;24.00;49.18
77077;BME280;66003;52.286;104.306;2023-06-24T04:40:44;95773.78;;;23.89;48.53
77077;BME280;66003;52.286;104.306;2023-06-24T04:43:11;95771.97;;;24.04;48.56
77077;BME280;66003;52.286;104.306;2023-06-24T04:45:37;95789.72;;;24.31;48.26
77077;BME280;66003;52.286;104.306;2023-06-24T04:48:05;95761.19;;;24.25;47.96
77077;BME280;66003;52.286;104.306;2023-06-24T04:50:31;95781.38;;;24.13;48.94
77077;BME280;66003;52.286;104.306;2023-06-24T04:52:58;95791.78;;;24.48;47.99
77077;BME280;66003;52.286;104.306;2023-06-24T04:55:24;95780.50;;;24.54;47.60
77077;BME280;66003;52.286;104.306;2023-06-24T04:57:50;95756.72;;;24.61;46.49
77077;BME280;66003;52.286;104.306;2023-06-24T05:00:16;95766.03;;;24.57;47.13
77077;BME280;66003;52.286;104.306;2023-06-24T05:02:43;95788.41;;;24.76;46.96
77077;BME280;66003;52.286;104.306;2023-06-24T05:05:09;95786.47;;;24.77;46.86
77077;BME280;66003;52.286;104.306;2023-06-24T05:07:35;95767.78;;;24.90;46.88
77077;BME280;66003;52.286;104.306;2023-06-24T05:10:01;95772.53;;;25.14;46.26
77077;BME280;66003;52.286;104.306;2023-06-24T05:12:28;95791.72;;;25.17;46.47
77077;BME280;66003;52.286;104.306;2023-06-24T05:14:54;95772.91;;;25.02;46.18
77077;BME280;66003;52.286;104.306;2023-06-24T05:17:20;95736.13;;;24.89;46.11
77077;BME280;66003;52.286;104.306;2023-06-24T05:19:46;95756.16;;;25.21;45.85
77077;BME280;66003;52.286;104.306;2023-06-24T05:22:13;95760.88;;;25.38;46.07
77077;BME280;66003;52.286;104.306;2023-06-24T05:24:39;95763.25;;;25.58;45.63
77077;BME280;66003;52.286;104.306;2023-06-24T05:27:07;95763.28;;;25.61;45.53
77077;BME280;66003;52.286;104.306;2023-06-24T05:29:34;95765.25;;;25.89;45.54
77077;BME280;66003;52.286;104.306;2023-06-24T05:32:00;95767.19;;;26.03;44.95
77077;BME280;66003;52.286;104.306;2023-06-24T05:34:30;95756.59;;;26.22;45.25
77077;BME280;66003;52.286;104.306;2023-06-24T05:36:56;95762.13;;;26.30;44.16
77077;BME280;66003;52.286;104.306;2023-06-24T05:39:24;95739.38;;;26.25;44.13
77077;BME280;66003;52.286;104.306;2023-06-24T05:41:50;95744.09;;;26.14;44.25
77077;BME280;66003;52.286;104.306;2023-06-24T05:44:17;95733.16;;;26.07;43.92
77077;BME280;66003;52.286;104.306;2023-06-24T05:46:46;95757.00;;;26.14;44.35
77077;BME280;66003;52.286;104.306;2023-06-24T05:49:12;95739.44;;;25.86;45.20
77077;BME280;66003;52.286;104.306;2023-06-24T05:51:38;95724.97;;;25.82;44.66
77077;BME280;66003;52.286;104.306;2023-06-24T05:54:05;95759.38;;;25.94;45.14
77077;BME280;66003;52.286;104.306;2023-06-24T05:56:33;95723.81;;;25.66;45.27
77077;BME280;66003;52.286;104.306;2023-06-24T05:58:59;95753.13;;;25.76;45.72
77077;BME280;66003;52.286;104.306;2023-06-24T06:01:26;95665.91;;;25.28;44.64
77077;BME280;66003;52.286;104.306;2023-06-24T06:03:53;95726.09;;;25.32;46.67
77077;BME280;66003;52.286;104.306;2023-06-24T06:06:19;95738.59;;;25.40;46.89
77077;BME280;66003;52.286;104.306;2023-06-24T06:08:45;95749.22;;;25.70;45.40
77077;BME280;66003;52.286;104.306;2023-06-24T06:11:11;95754.69;;;25.95;45.63
77077;BME280;66003;52.286;104.306;2023-06-24T06:13:37;95730.81;;;25.84;44.71
77077;BME280;66003;52.286;104.306;2023-06-24T06:16:04;95742.16;;;25.76;44.86
77077;BME280;66003;52.286;104.306;2023-06-24T06:18:30;95741.38;;;25.65;46.21
77077;BME280;66003;52.286;104.306;2023-06-24T06:20:56;95706.16;;;25.21;45.79
77077;BME280;66003;52.286;104.306;2023-06-24T06:23:22;95735.09;;;25.36;45.72
77077;BME280;66003;52.286;104.306;2023-06-24T06:25:49;95738.16;;;25.06;47.46
77077;BME280;66003;52.286;104.306;2023-06-24T06:28:15;95733.00;;;24.87;47.85
77077;BME280;66003;52.286;104.306;2023-06-24T06:30:41;95711.59;;;25.10;47.59
77077;BME280;66003;52.286;104.306;2023-06-24T06:33:07;95731.19;;;25.40;46.78
77077;BME280;66003;52.286;104.306;2023-06-24T06:35:33;95719.84;;;25.49;46.63
77077;BME280;66003;52.286;104.306;2023-06-24T06:37:59;95722.63;;;25.67;46.01
77077;BME280;66003;52.286;104.306;2023-06-24T06:40:26;95728.09;;;25.74;45.98
77077;BME280;66003;52.286;104.306;2023-06-24T06:42:54;95723.41;;;25.74;46.52
77077;BME280;66003;52.286;104.306;2023-06-24T06:45:21;95706.97;;;25.60;45.78
77077;BME280;66003;52.286;104.306;2023-06-24T06:47:48;95716.38;;;25.66;45.84
77077;BME280;66003;52.286;104.306;2023-06-24T06:50:14;95713.59;;;25.52;47.05
77077;BME280;66003;52.286;104.306;2023-06-24T06:52:41;95724.94;;;25.47;46.59
77077;BME280;66003;52.286;104.306;2023-06-24T06:55:07;95708.09;;;25.27;47.55
77077;BME280;66003;52.286;104.306;2023-06-24T06:57:33;95686.59;;;25.04;47.00
77077;BME280;66003;52.286;104.306;2023-06-24T07:00:00;95692.06;;;25.08;47.59
77077;BME280;66003;52.286;104.306;2023-06-24T07:02:26;95663.91;;;24.90;47.63
77077;BME280;66003;52.286;104.306;2023-06-24T07:04:52;95701.06;;;25.26;47.58
77077;BME280;66003;52.286;104.306;2023-06-24T07:07:18;95707.75;;;25.36;46.57
77077;BME280;66003;52.286;104.306;2023-06-24T07:09:45;95706.56;;;25.40;46.25
77077;BME280;66003;52.286;104.306;2023-06-24T07:12:12;95715.16;;;25.39;47.55
77077;BME280;66003;52.286;104.306;2023-06-24T07:14:39;95709.28;;;25.30;46.80
77077;BME280;66003;52.286;104.306;2023-06-24T07:17:06;95688.13;;;25.02;47.76
77077;BME280;66003;52.286;104.306;2023-06-24T07:19:32;95649.81;;;24.77;47.77
77077;BME280;66003;52.286;104.306;2023-06-24T07:21:58;95713.59;;;25.31;47.75
77077;BME280;66003;52.286;104.306;2023-06-24T07:24:25;95689.75;;;25.31;46.92
77077;BME280;66003;52.286;104.306;2023-06-24T07:26:51;95708.53;;;25.58;46.66
77077;BME280;66003;52.286;104.306;2023-06-24T07:29:17;95692.50;;;25.45;46.51
77077;BME280;66003;52.286;104.306;2023-06-24T07:31:44;95708.50;;;25.40;46.23
77077;BME280;66003;52.286;104.306;2023-06-24T07:34:10;95680.38;;;25.22;46.94
77077;BME280;66003;52.286;104.306;2023-06-24T07:36:36;95708.91;;;25.31;47.68
77077;BME280;66003;52.286;104.306;2023-06-24T07:39:02;95713.59;;;25.24;46.96
77077;BME280;66003;52.286;104.306;2023-06-24T07:41:29;95709.63;;;25.03;47.95
77077;BME280;66003;52.286;104.306;2023-06-24T07:43:55;95704.53;;;24.95;47.38
77077;BME280;66003;52.286;104.306;2023-06-24T07:46:21;95704.44;;;24.73;48.77
77077;BME280;66003;52.286;104.306;2023-06-24T07:48:47;95697.72;;;24.50;48.33
77077;BME280;66003;52.286;104.306;2023-06-24T07:51:14;95712.19;;;24.57;49.07
77077;BME280;66003;52.286;104.306;2023-06-24T07:53:40;95707.53;;;24.61;48.86
77077;BME280;66003;52.286;104.306;2023-06-24T07:56:06;95697.41;;;24.69;48.13
77077;BME280;66003;52.286;104.306;2023-06-24T07:58:34;95690.38;;;24.71;48.44
77077;BME280;66003;52.286;104.306;2023-06-24T08:01:01;95697.44;;;24.83;48.88
77077;BME280;66003;52.286;104.306;2023-06-24T08:03:27;95683.41;;;24.84;48.30
77077;BME280;66003;52.286;104.306;2023-06-24T08:05:54;95703.81;;;25.12;48.08
77077;BME280;66003;52.286;104.306;2023-06-24T08:08:20;95705.75;;;25.11;47.00
77077;BME280;66003;52.286;104.306;2023-06-24T08:10:46;95681.91;;;25.05;47.50
77077;BME280;66003;52.286;104.306;2023-06-24T08:13:12;95702.28;;;25.36;46.34
77077;BME280;66003;52.286;104.306;2023-06-24T08:15:39;95703.84;;;25.44;46.49
77077;BME280;66003;52.286;104.306;2023-06-24T08:18:05;95681.13;;;25.26;46.64
77077;BME280;66003;52.286;104.306;2023-06-24T08:20:31;95719.06;;;25.34;46.08
77077;BME280;66003;52.286;104.306;2023-06-24T08:22:57;95678.75;;;25.03;46.61
77077;BME280;66003;52.286;104.306;2023-06-24T08:25:23;95693.16;;;24.82;47.37
77077;BME280;66003;52.286;104.306;2023-06-24T08:27:49;95676.25;;;24.55;47.77
77077;BME280;66003;52.286;104.306;2023-06-24T08:30:16;95708.22;;;24.44;48.36
77077;BME280;66003;52.286;104.306;2023-06-24T08:32:42;95709.72;;;24.27;48.20
77077;BME280;66003;52.286;104.306;2023-06-24T08:35:09;95697.03;;;23.94;49.27
77077;BME280;66003;52.286;104.306;2023-06-24T08:37:39;95703.66;;;23.97;49.50
77077;BME280;66003;52.286;104.306;2023-06-24T08:40:06;95716.94;;;24.02;49.86
77077;BME280;66003;52.286;104.306;2023-06-24T08:42:33;95703.34;;;24.05;49.44
77077;BME280;66003;52.286;104.306;2023-06-24T08:44:59;95672.09;;;23.99;49.02
77077;BME280;66003;52.286;104.306;2023-06-24T08:47:27;95700.75;;;24.34;49.24
77077;BME280;66003;52.286;104.306;2023-06-24T08:50:03;95702.03;;;24.58;47.67
77077;BME280;66003;52.286;104.306;2023-06-24T08:52:35;95715.84;;;24.90;47.19
77077;BME280;66003;52.286;104.306;2023-06-24T08:55:04;95724.09;;;25.04;46.54
77077;BME280;66003;52.286;104.306;2023-06-24T08:57:32;95727.22;;;25.16;46.29
77077;BME280;66003;52.286;104.306;2023-06-24T08:59:58;95722.97;;;25.40;45.85
77077;BME280;66003;52.286;104.306;2023-06-24T09:02:24;95698.38;;;25.62;45.19
77077;BME280;66003;52.286;104.306;2023-06-24T09:04:51;95722.63;;;25.95;44.61
77077;BME280;66003;52.286;104.306;2023-06-24T09:07:27;95698.38;;;25.94;44.59
77077;BME280;66003;52.286;104.306;2023-06-24T09:09:54;95727.72;;;25.93;44.03
77077;BME280;66003;52.286;104.306;2023-06-24T09:12:21;95721.44;;;25.93;43.95
77077;BME280;66003;52.286;104.306;2023-06-24T09:14:48;95727.69;;;25.89;44.10
77077;BME280;66003;52.286;104.306;2023-06-24T09:17:15;95721.47;;;25.82;44.22
77077;BME280;66003;52.286;104.306;2023-06-24T09:19:41;95734.34;;;25.88;44.42
77077;BME280;66003;52.286;104.306;2023-06-24T09:22:10;95706.19;;;25.77;44.38
77077;BME280;66003;52.286;104.306;2023-06-24T09:24:54;95728.47;;;26.04;44.90
77077;BME280;66003;52.286;104.306;2023-06-24T09:27:20;95712.00;;;26.11;44.29
77077;BME280;66003;52.286;104.306;2023-06-24T09:29:47;95738.59;;;26.36;44.13
77077;BME280;66003;52.286;104.306;2023-06-24T09:32:14;95719.44;;;26.18;43.35
77077;BME280;66003;52.286;104.306;2023-06-24T09:34:40;95726.81;;;26.46;43.25
77077;BME280;66003;52.286;104.306;2023-06-24T09:37:06;95710.78;;;26.48;42.89
77077;BME280;66003;52.286;104.306;2023-06-24T09:39:41;95670.09;;;26.39;43.46
77077;BME280;66003;52.286;104.306;2023-06-24T09:42:08;95716.13;;;26.80;43.29
77077;BME280;66003;52.286;104.306;2023-06-24T09:44:34;95720.38;;;26.91;42.50
77077;BME280;66003;52.286;104.306;2023-06-24T09:47:01;95689.88;;;26.82;43.07
77077;BME280;66003;52.286;104.306;2023-06-24T09:49:27;95711.78;;;26.89;43.41
77077;BME280;66003;52.286;104.306;2023-06-24T09:51:57;95710.59;;;26.98;43.41
77077;BME280;66003;52.286;104.306;2023-06-24T09:54:28;95703.41;;;27.14;43.29
77077;BME280;66003;52.286;104.306;2023-06-24T09:56:59;95695.16;;;27.21;42.10
77077;BME280;66003;52.286;104.306;2023-06-24T09:59:27;95704.16;;;27.25;42.25
77077;BME280;66003;52.286;104.306;2023-06-24T10:01:55;95676.81;;;27.11;42.75
77077;BME280;66003;52.286;104.306;2023-06-24T10:04:23;95694.59;;;27.44;42.77
77077;BME280;66003;52.286;104.306;2023-06-24T10:06:49;95685.50;;;27.58;42.14
77077;BME280;66003;52.286;104.306;2023-06-24T10:09:17;95687.09;;;27.55;41.62
77077;BME280;66003;52.286;104.306;2023-06-24T10:11:46;95684.22;;;27.70;40.70
77077;BME280;66003;52.286;104.306;2023-06-24T10:14:16;95688.94;;;27.69;41.45
77077;BME280;66003;52.286;104.306;2023-06-24T10:16:44;95682.47;;;27.42;42.06
77077;BME280;66003;52.286;104.306;2023-06-24T10:19:10;95670.94;;;27.06;42.00
77077;BME280;66003;52.286;104.306;2023-06-24T10:21:56;95675.31;;;27.00;43.11
77077;BME280;66003;52.286;104.306;2023-06-24T10:24:33;95668.69;;;26.86;43.16
77077;BME280;66003;52.286;104.306;2023-06-24T10:27:08;95678.91;;;26.82;43.10
77077;BME280;66003;52.286;104.306;2023-06-24T10:29:38;95641.13;;;26.42;43.55
77077;BME280;66003;52.286;104.306;2023-06-24T10:32:08;95644.66;;;26.35;43.71
77077;BME280;66003;52.286;104.306;2023-06-24T10:39:56;95681.91;;;26.08;44.45
77077;BME280;66003;52.286;104.306;2023-06-24T10:42:42;95673.72;;;25.90;45.03
77077;BME280;66003;52.286;104.306;2023-06-24T10:47:37;95658.88;;;25.52;45.46
77077;BME280;66003;52.286;104.306;2023-06-24T10:50:09;95673.75;;;25.76;45.25
77077;BME280;66003;52.286;104.306;2023-06-24T10:52:40;95672.53;;;25.98;44.33
77077;BME280;66003;52.286;104.306;2023-06-24T10:55:07;95673.72;;;25.94;45.87
77077;BME280;66003;52.286;104.306;2023-06-24T10:57:34;95686.59;;;26.00;44.55
77077;BME280;66003;52.286;104.306;2023-06-24T11:00:02;95659.63;;;26.02;44.86
77077;BME280;66003;52.286;104.306;2023-06-24T11:02:33;95677.97;;;26.19;44.27
77077;BME280;66003;52.286;104.306;2023-06-24T11:05:01;95619.78;;;25.83;44.42
77077;BME280;66003;52.286;104.306;2023-06-24T11:07:34;95685.75;;;26.24;44.20
77077;BME280;66003;52.286;104.306;2023-06-24T11:10:09;95692.84;;;26.15;44.61
77077;BME280;66003;52.286;104.306;2023-06-24T11:12:37;95684.66;;;25.86;45.10
77077;BME280;66003;52.286;104.306;2023-06-24T11:15:09;95701.88;;;25.90;45.45
77077;BME280;66003;52.286;104.306;2023-06-24T11:17:36;95706.19;;;25.56;45.93
77077;BME280;66003;52.286;104.306;2023-06-24T11:20:11;95685.44;;;25.27;46.27
77077;BME280;66003;52.286;104.306;2023-06-24T11:22:39;95725.25;;;25.06;47.18
77077;BME280;66003;52.286;104.306;2023-06-24T11:25:13;95697.72;;;24.50;47.99
77077;BME280;66003;52.286;104.306;2023-06-24T11:27:40;95725.44;;;24.55;48.09
77077;BME280;66003;52.286;104.306;2023-06-24T11:30:06;95745.34;;;24.48;48.90
77077;BME280;66003;52.286;104.306;2023-06-24T11:32:41;95717.53;;;24.29;49.16
77077;BME280;66003;52.286;104.306;2023-06-24T11:35:09;95750.38;;;24.39;49.24
77077;BME280;66003;52.286;104.306;2023-06-24T11:37:36;95759.31;;;24.36;49.03
77077;BME280;66003;52.286;104.306;2023-06-24T11:42:33;95762.69;;;24.19;49.09
77077;BME280;66003;52.286;104.306;2023-06-24T11:45:05;95758.78;;;24.20;49.38
77077;BME280;66003;52.286;104.306;2023-06-24T11:47:34;95763.56;;;24.27;48.67
77077;BME280;66003;52.286;104.306;2023-06-24T11:50:01;95749.81;;;24.20;48.85
77077;BME280;66003;52.286;104.306;2023-06-24T11:52:52;95759.75;;;24.45;48.29
77077;BME280;66003;52.286;104.306;2023-06-24T11:55:21;95760.91;;;24.41;48.16
77077;BME280;66003;52.286;104.306;2023-06-24T11:58:00;95758.56;;;24.43;48.58
77077;BME280;66003;52.286;104.306;2023-06-24T12:00:38;95748.75;;;24.31;48.42
77077;BME280;66003;52.286;104.306;2023-06-24T12:03:06;95752.47;;;24.09;49.31
77077;BME280;66003;52.286;104.306;2023-06-24T12:05:35;95743.03;;;23.96;49.57
77077;BME280;66003;52.286;104.306;2023-06-24T12:08:05;95742.53;;;23.80;49.74
77077;BME280;66003;52.286;104.306;2023-06-24T12:10:33;95736.19;;;23.65;49.58
77077;BME280;66003;52.286;104.306;2023-06-24T12:13:04;95727.38;;;23.41;49.90
77077;BME280;66003;52.286;104.306;2023-06-24T12:15:32;95710.81;;;23.20;50.72
77077;BME280;66003;52.286;104.306;2023-06-24T12:17:58;95730.00;;;23.31;50.60
77077;BME280;66003;52.286;104.306;2023-06-24T12:20:25;95693.19;;;23.07;51.02
77077;BME280;66003;52.286;104.306;2023-06-24T12:22:52;95715.81;;;23.11;51.09
77077;BME280;66003;52.286;104.306;2023-06-24T12:25:18;95709.84;;;23.02;51.44
77077;BME280;66003;52.286;104.306;2023-06-24T12:27:45;95704.03;;;23.00;51.66
77077;BME280;66003;52.286;104.306;2023-06-24T12:30:12;95666.41;;;22.79;51.42
77077;BME280;66003;52.286;104.306;2023-06-24T12:32:39;95667.09;;;22.73;52.04
77077;BME280;66003;52.286;104.306;2023-06-24T12:35:06;95668.97;;;22.65;52.47
77077;BME280;66003;52.286;104.306;2023-06-24T12:37:35;95687.69;;;22.70;52.30
77077;BME280;66003;52.286;104.306;2023-06-24T12:40:03;95692.28;;;22.62;52.79
77077;BME280;66003;52.286;104.306;2023-06-24T12:42:32;95658.06;;;22.31;52.75
77077;BME280;66003;52.286;104.306;2023-06-24T12:44:59;95680.69;;;22.36;53.17
77077;BME280;66003;52.286;104.306;2023-06-24T12:47:26;95693.19;;;22.40;53.67
77077;BME280;66003;52.286;104.306;2023-06-24T12:49:53;95684.13;;;22.29;53.94
77077;BME280;66003;52.286;104.306;2023-06-24T12:52:19;95694.25;;;22.32;54.07
77077;BME280;66003;52.286;104.306;2023-06-24T12:54:45;95651.50;;;22.03;54.26
77077;BME280;66003;52.286;104.306;2023-06-24T12:57:11;95682.00;;;22.15;54.04
77077;BME280;66003;52.286;104.306;2023-06-24T12:59:38;95678.00;;;22.09;54.23
77077;BME280;66003;52.286;104.306;2023-06-24T13:02:04;95703.47;;;22.54;52.82